sensor_id;sensor_type;location;lat;lon;timestamp;P1;durP1;ratioP1;P2;durP2;ratioP2
20271;SDS011;10295;49.812;9.866;2023-04-24T00:00:33;5.73;;;1.50;;
20271;SDS011;10295;49.812;9.866;2023-04-24T00:03:00;5.17;;;1.57;;
20271;SDS011;10295;49.812;9.866;2023-04-24T00:05:28;3.73;;;1.37;;
20271;SDS011;10295;49.812;9.866;2023-04-24T00:07:55;5.83;;;1.40;;
20271;SDS011;10295;49.812;9.866;2023-04-24T00:10:22;5.80;;;1.33;;
20271;SDS011;10295;49.812;9.866;2023-04-24T00:12:50;4.13;;;1.20;;
20271;SDS011;10295;49.812;9.866;2023-04-24T00:15:17;4.77;;;1.40;;
20271;SDS011;10295;49.812;9.866;2023-04-24T00:17:44;3.00;;;1.37;;
20271;SDS011;10295;49.812;9.866;2023-04-24T00:20:12;4.17;;;1.40;;
20271;SDS011;10295;49.812;9.866;2023-04-24T00:22:40;3.50;;;1.30;;
20271;SDS011;10295;49.812;9.866;2023-04-24T00:25:08;7.17;;;1.30;;
20271;SDS011;10295;49.812;9.866;2023-04-24T00:27:35;5.40;;;1.43;;
20271;SDS011;10295;49.812;9.866;2023-04-24T00:30:03;3.97;;;1.30;;
20271;SDS011;10295;49.812;9.866;2023-04-24T00:32:31;6.53;;;1.40;;
20271;SDS011;10295;49.812;9.866;2023-04-24T00:34:58;4.17;;;1.40;;
20271;SDS011;10295;49.812;9.866;2023-04-24T00:37:25;7.80;;;1.43;;
20271;SDS011;10295;49.812;9.866;2023-04-24T00:39:52;4.07;;;1.33;;
20271;SDS011;10295;49.812;9.866;2023-04-24T00:42:20;5.03;;;1.60;;
20271;SDS011;10295;49.812;9.866;2023-04-24T00:44:47;5.50;;;1.40;;
20271;SDS011;10295;49.812;9.866;2023-04-24T00:47:14;4.77;;;1.40;;
20271;SDS011;10295;49.812;9.866;2023-04-24T00:49:41;3.17;;;1.03;;
20271;SDS011;10295;49.812;9.866;2023-04-24T00:52:09;5.33;;;1.77;;
20271;SDS011;10295;49.812;9.866;2023-04-24T00:54:36;3.73;;;1.17;;
20271;SDS011;10295;49.812;9.866;2023-04-24T00:57:04;3.53;;;1.20;;
20271;SDS011;10295;49.812;9.866;2023-04-24T00:59:31;7.50;;;1.40;;
20271;SDS011;10295;49.812;9.866;2023-04-24T01:01:58;5.50;;;1.30;;
20271;SDS011;10295;49.812;9.866;2023-04-24T01:04:25;4.90;;;1.30;;
20271;SDS011;10295;49.812;9.866;2023-04-24T01:06:53;4.03;;;1.20;;
20271;SDS011;10295;49.812;9.866;2023-04-24T01:09:23;3.67;;;1.27;;
20271;SDS011;10295;49.812;9.866;2023-04-24T01:11:50;6.07;;;1.40;;
20271;SDS011;10295;49.812;9.866;2023-04-24T01:14:17;3.43;;;1.20;;
20271;SDS011;10295;49.812;9.866;2023-04-24T01:16:44;6.83;;;1.30;;
20271;SDS011;10295;49.812;9.866;2023-04-24T01:19:11;3.60;;;1.13;;
20271;SDS011;10295;49.812;9.866;2023-04-24T01:21:40;3.13;;;0.97;;
20271;SDS011;10295;49.812;9.866;2023-04-24T01:24:09;5.03;;;1.10;;
20271;SDS011;10295;49.812;9.866;2023-04-24T01:26:36;3.23;;;1.03;;
20271;SDS011;10295;49.812;9.866;2023-04-24T01:29:03;5.00;;;1.30;;
20271;SDS011;10295;49.812;9.866;2023-04-24T01:31:31;3.17;;;1.10;;
20271;SDS011;10295;49.812;9.866;2023-04-24T01:33:59;6.30;;;1.10;;
20271;SDS011;10295;49.812;9.866;2023-04-24T01:36:26;2.47;;;1.00;;
20271;SDS011;10295;49.812;9.866;2023-04-24T01:38:54;6.03;;;1.10;;
20271;SDS011;10295;49.812;9.866;2023-04-24T01:41:21;3.43;;;1.10;;
20271;SDS011;10295;49.812;9.866;2023-04-24T01:43:48;5.57;;;1.20;;
20271;SDS011;10295;49.812;9.866;2023-04-24T01:46:16;4.03;;;1.17;;
20271;SDS011;10295;49.812;9.866;2023-04-24T01:48:44;2.97;;;1.10;;
20271;SDS011;10295;49.812;9.866;2023-04-24T01:51:11;3.67;;;1.00;;
20271;SDS011;10295;49.812;9.866;2023-04-24T01:53:38;5.50;;;1.20;;
20271;SDS011;10295;49.812;9.866;2023-04-24T01:56:06;3.57;;;1.10;;
20271;SDS011;10295;49.812;9.866;2023-04-24T01:58:33;3.13;;;1.20;;
20271;SDS011;10295;49.812;9.866;2023-04-24T02:01:00;5.03;;;1.10;;
20271;SDS011;10295;49.812;9.866;2023-04-24T02:03:27;4.27;;;1.20;;
20271;SDS011;10295;49.812;9.866;2023-04-24T02:05:55;5.67;;;1.30;;
20271;SDS011;10295;49.812;9.866;2023-04-24T02:08:22;5.20;;;1.20;;
20271;SDS011;10295;49.812;9.866;2023-04-24T02:10:50;6.17;;;1.10;;
20271;SDS011;10295;49.812;9.866;2023-04-24T02:13:17;4.37;;;1.07;;
20271;SDS011;10295;49.812;9.866;2023-04-24T02:15:44;4.27;;;1.00;;
20271;SDS011;10295;49.812;9.866;2023-04-24T02:18:11;3.87;;;1.00;;
20271;SDS011;10295;49.812;9.866;2023-04-24T02:20:39;6.23;;;1.20;;
20271;SDS011;10295;49.812;9.866;2023-04-24T02:23:06;2.10;;;0.93;;
20271;SDS011;10295;49.812;9.866;2023-04-24T02:25:33;4.40;;;1.20;;
20271;SDS011;10295;49.812;9.866;2023-04-24T02:28:00;3.73;;;1.20;;
20271;SDS011;10295;49.812;9.866;2023-04-24T02:30:29;4.30;;;1.20;;
20271;SDS011;10295;49.812;9.866;2023-04-24T02:32:56;2.40;;;1.00;;
20271;SDS011;10295;49.812;9.866;2023-04-24T02:35:23;4.87;;;1.27;;
20271;SDS011;10295;49.812;9.866;2023-04-24T02:37:50;3.50;;;1.03;;
20271;SDS011;10295;49.812;9.866;2023-04-24T02:40:18;8.63;;;1.10;;
20271;SDS011;10295;49.812;9.866;2023-04-24T02:42:45;2.77;;;0.97;;
20271;SDS011;10295;49.812;9.866;2023-04-24T02:45:12;5.57;;;1.10;;
20271;SDS011;10295;49.812;9.866;2023-04-24T02:47:39;5.00;;;1.00;;
20271;SDS011;10295;49.812;9.866;2023-04-24T02:50:07;3.67;;;1.00;;
20271;SDS011;10295;49.812;9.866;2023-04-24T02:52:34;5.07;;;1.30;;
20271;SDS011;10295;49.812;9.866;2023-04-24T02:55:01;3.43;;;0.97;;
20271;SDS011;10295;49.812;9.866;2023-04-24T02:57:28;4.83;;;1.23;;
20271;SDS011;10295;49.812;9.866;2023-04-24T02:59:56;6.30;;;1.10;;
20271;SDS011;10295;49.812;9.866;2023-04-24T03:02:23;5.70;;;1.30;;
20271;SDS011;10295;49.812;9.866;2023-04-24T03:04:50;4.97;;;1.00;;
20271;SDS011;10295;49.812;9.866;2023-04-24T03:07:17;7.27;;;1.10;;
20271;SDS011;10295;49.812;9.866;2023-04-24T03:09:46;6.50;;;1.20;;
20271;SDS011;10295;49.812;9.866;2023-04-24T03:12:14;4.47;;;1.10;;
20271;SDS011;10295;49.812;9.866;2023-04-24T03:14:43;4.60;;;1.40;;
20271;SDS011;10295;49.812;9.866;2023-04-24T03:17:10;2.73;;;1.00;;
20271;SDS011;10295;49.812;9.866;2023-04-24T03:19:37;2.33;;;1.00;;
20271;SDS011;10295;49.812;9.866;2023-04-24T03:22:05;3.47;;;1.10;;
20271;SDS011;10295;49.812;9.866;2023-04-24T03:24:32;6.67;;;1.30;;
20271;SDS011;10295;49.812;9.866;2023-04-24T03:26:59;4.97;;;1.43;;
20271;SDS011;10295;49.812;9.866;2023-04-24T03:29:26;5.00;;;1.30;;
20271;SDS011;10295;49.812;9.866;2023-04-24T03:31:55;5.60;;;1.20;;
20271;SDS011;10295;49.812;9.866;2023-04-24T03:34:22;5.30;;;1.17;;
20271;SDS011;10295;49.812;9.866;2023-04-24T03:36:50;5.77;;;1.20;;
20271;SDS011;10295;49.812;9.866;2023-04-24T03:39:18;5.77;;;1.17;;
20271;SDS011;10295;49.812;9.866;2023-04-24T03:41:45;7.30;;;1.37;;
20271;SDS011;10295;49.812;9.866;2023-04-24T03:44:13;9.40;;;1.20;;
20271;SDS011;10295;49.812;9.866;2023-04-24T03:46:40;5.93;;;1.17;;
20271;SDS011;10295;49.812;9.866;2023-04-24T03:49:07;4.13;;;1.47;;
20271;SDS011;10295;49.812;9.866;2023-04-24T03:51:35;3.57;;;1.20;;
20271;SDS011;10295;49.812;9.866;2023-04-24T03:54:02;7.20;;;1.40;;
20271;SDS011;10295;49.812;9.866;2023-04-24T03:56:30;6.10;;;1.20;;
20271;SDS011;10295;49.812;9.866;2023-04-24T03:58:57;4.30;;;1.10;;
20271;SDS011;10295;49.812;9.866;2023-04-24T04:01:24;4.83;;;1.20;;
20271;SDS011;10295;49.812;9.866;2023-04-24T04:03:51;5.57;;;1.13;;
20271;SDS011;10295;49.812;9.866;2023-04-24T04:06:18;5.43;;;1.40;;
20271;SDS011;10295;49.812;9.866;2023-04-24T04:08:47;5.10;;;1.20;;
20271;SDS011;10295;49.812;9.866;2023-04-24T04:11:14;5.67;;;1.30;;
20271;SDS011;10295;49.812;9.866;2023-04-24T04:13:41;4.37;;;1.20;;
20271;SDS011;10295;49.812;9.866;2023-04-24T04:16:09;4.07;;;0.97;;
20271;SDS011;10295;49.812;9.866;2023-04-24T04:18:36;8.63;;;1.47;;
20271;SDS011;10295;49.812;9.866;2023-04-24T04:21:03;5.90;;;1.10;;
20271;SDS011;10295;49.812;9.866;2023-04-24T04:23:31;2.83;;;1.10;;
20271;SDS011;10295;49.812;9.866;2023-04-24T04:25:58;4.50;;;1.20;;
20271;SDS011;10295;49.812;9.866;2023-04-24T04:28:25;5.43;;;1.00;;
20271;SDS011;10295;49.812;9.866;2023-04-24T04:30:53;5.40;;;1.40;;
20271;SDS011;10295;49.812;9.866;2023-04-24T04:33:21;4.47;;;1.20;;
20271;SDS011;10295;49.812;9.866;2023-04-24T04:35:48;3.37;;;1.03;;
20271;SDS011;10295;49.812;9.866;2023-04-24T04:38:15;5.00;;;1.17;;
20271;SDS011;10295;49.812;9.866;2023-04-24T04:40:43;5.70;;;1.10;;
20271;SDS011;10295;49.812;9.866;2023-04-24T04:43:10;6.77;;;1.70;;
20271;SDS011;10295;49.812;9.866;2023-04-24T04:45:37;7.03;;;1.30;;
20271;SDS011;10295;49.812;9.866;2023-04-24T04:48:05;5.30;;;1.40;;
20271;SDS011;10295;49.812;9.866;2023-04-24T04:50:33;5.80;;;1.40;;
20271;SDS011;10295;49.812;9.866;2023-04-24T04:53:01;4.10;;;1.40;;
20271;SDS011;10295;49.812;9.866;2023-04-24T04:55:28;6.97;;;1.43;;
20271;SDS011;10295;49.812;9.866;2023-04-24T04:57:55;5.63;;;1.60;;
20271;SDS011;10295;49.812;9.866;2023-04-24T05:00:23;5.30;;;1.60;;
20271;SDS011;10295;49.812;9.866;2023-04-24T05:02:51;6.47;;;1.50;;
20271;SDS011;10295;49.812;9.866;2023-04-24T05:05:18;6.37;;;1.53;;
20271;SDS011;10295;49.812;9.866;2023-04-24T05:07:46;5.00;;;1.50;;
20271;SDS011;10295;49.812;9.866;2023-04-24T05:10:13;4.77;;;1.50;;
20271;SDS011;10295;49.812;9.866;2023-04-24T05:12:40;6.23;;;1.47;;
20271;SDS011;10295;49.812;9.866;2023-04-24T05:15:10;8.33;;;1.80;;
20271;SDS011;10295;49.812;9.866;2023-04-24T05:17:38;4.87;;;1.37;;
20271;SDS011;10295;49.812;9.866;2023-04-24T05:20:06;6.03;;;1.60;;
20271;SDS011;10295;49.812;9.866;2023-04-24T05:22:34;4.10;;;1.57;;
20271;SDS011;10295;49.812;9.866;2023-04-24T05:25:02;5.30;;;1.67;;
20271;SDS011;10295;49.812;9.866;2023-04-24T05:27:29;6.60;;;1.80;;
20271;SDS011;10295;49.812;9.866;2023-04-24T05:29:56;6.90;;;1.60;;
20271;SDS011;10295;49.812;9.866;2023-04-24T05:32:23;2.30;;;1.13;;
20271;SDS011;10295;49.812;9.866;2023-04-24T05:34:50;5.57;;;1.43;;
20271;SDS011;10295;49.812;9.866;2023-04-24T05:37:17;4.93;;;1.50;;
20271;SDS011;10295;49.812;9.866;2023-04-24T05:39:45;4.80;;;1.30;;
20271;SDS011;10295;49.812;9.866;2023-04-24T05:42:12;4.63;;;1.63;;
20271;SDS011;10295;49.812;9.866;2023-04-24T05:44:39;4.63;;;1.40;;
20271;SDS011;10295;49.812;9.866;2023-04-24T05:47:06;4.13;;;1.50;;
20271;SDS011;10295;49.812;9.866;2023-04-24T05:49:33;4.23;;;1.40;;
20271;SDS011;10295;49.812;9.866;2023-04-24T05:52:00;3.77;;;1.27;;
20271;SDS011;10295;49.812;9.866;2023-04-24T05:54:29;3.93;;;1.27;;
20271;SDS011;10295;49.812;9.866;2023-04-24T05:56:56;5.27;;;1.10;;
20271;SDS011;10295;49.812;9.866;2023-04-24T05:59:23;3.97;;;1.33;;
20271;SDS011;10295;49.812;9.866;2023-04-24T06:01:50;3.60;;;1.43;;
20271;SDS011;10295;49.812;9.866;2023-04-24T06:04:18;3.83;;;1.20;;
20271;SDS011;10295;49.812;9.866;2023-04-24T06:06:45;4.30;;;1.50;;
20271;SDS011;10295;49.812;9.866;2023-04-24T06:09:16;3.60;;;1.40;;
20271;SDS011;10295;49.812;9.866;2023-04-24T06:11:44;6.37;;;1.40;;
20271;SDS011;10295;49.812;9.866;2023-04-24T06:14:11;4.23;;;1.40;;
20271;SDS011;10295;49.812;9.866;2023-04-24T06:16:40;4.97;;;1.60;;
20271;SDS011;10295;49.812;9.866;2023-04-24T06:19:07;5.30;;;1.40;;
20271;SDS011;10295;49.812;9.866;2023-04-24T06:21:34;5.23;;;1.40;;
20271;SDS011;10295;49.812;9.866;2023-04-24T06:24:01;2.63;;;1.20;;
20271;SDS011;10295;49.812;9.866;2023-04-24T06:26:30;2.60;;;1.10;;
20271;SDS011;10295;49.812;9.866;2023-04-24T06:28:57;3.53;;;1.23;;
20271;SDS011;10295;49.812;9.866;2023-04-24T06:31:25;2.37;;;1.20;;
20271;SDS011;10295;49.812;9.866;2023-04-24T06:33:53;3.70;;;1.10;;
20271;SDS011;10295;49.812;9.866;2023-04-24T06:36:20;5.57;;;1.40;;
20271;SDS011;10295;49.812;9.866;2023-04-24T06:38:47;4.15;;;1.33;;
20271;SDS011;10295;49.812;9.866;2023-04-24T06:41:14;4.85;;;1.27;;
20271;SDS011;10295;49.812;9.866;2023-04-24T06:43:41;3.22;;;1.17;;
20271;SDS011;10295;49.812;9.866;2023-04-24T06:46:08;4.40;;;1.33;;
20271;SDS011;10295;49.812;9.866;2023-04-24T06:48:36;2.25;;;1.15;;
20271;SDS011;10295;49.812;9.866;2023-04-24T06:51:03;3.78;;;1.48;;
20271;SDS011;10295;49.812;9.866;2023-04-24T06:53:30;4.82;;;1.50;;
20271;SDS011;10295;49.812;9.866;2023-04-24T06:55:58;4.78;;;1.45;;
20271;SDS011;10295;49.812;9.866;2023-04-24T06:58:25;3.58;;;1.20;;
20271;SDS011;10295;49.812;9.866;2023-04-24T07:03:21;3.38;;;1.40;;
20271;SDS011;10295;49.812;9.866;2023-04-24T07:05:48;4.30;;;1.52;;
20271;SDS011;10295;49.812;9.866;2023-04-24T07:08:15;5.40;;;1.40;;
20271;SDS011;10295;49.812;9.866;2023-04-24T07:10:44;4.10;;;1.40;;
20271;SDS011;10295;49.812;9.866;2023-04-24T07:13:11;4.90;;;1.30;;
20271;SDS011;10295;49.812;9.866;2023-04-24T07:15:38;3.63;;;1.30;;
20271;SDS011;10295;49.812;9.866;2023-04-24T07:18:07;4.22;;;1.40;;
20271;SDS011;10295;49.812;9.866;2023-04-24T07:20:34;5.10;;;1.60;;
20271;SDS011;10295;49.812;9.866;2023-04-24T07:23:01;3.88;;;1.48;;
20271;SDS011;10295;49.812;9.866;2023-04-24T07:25:29;5.28;;;1.70;;
20271;SDS011;10295;49.812;9.866;2023-04-24T07:27:57;3.42;;;1.40;;
20271;SDS011;10295;49.812;9.866;2023-04-24T07:30:24;5.78;;;1.80;;
20271;SDS011;10295;49.812;9.866;2023-04-24T07:32:51;5.53;;;1.85;;
20271;SDS011;10295;49.812;9.866;2023-04-24T07:35:19;5.50;;;1.80;;
20271;SDS011;10295;49.812;9.866;2023-04-24T07:37:46;6.40;;;1.85;;
20271;SDS011;10295;49.812;9.866;2023-04-24T07:40:13;4.95;;;1.90;;
20271;SDS011;10295;49.812;9.866;2023-04-24T07:42:41;5.67;;;1.90;;
20271;SDS011;10295;49.812;9.866;2023-04-24T07:45:08;5.23;;;1.90;;
20271;SDS011;10295;49.812;9.866;2023-04-24T07:47:35;6.90;;;2.10;;
20271;SDS011;10295;49.812;9.866;2023-04-24T07:50:04;5.80;;;2.20;;
20271;SDS011;10295;49.812;9.866;2023-04-24T07:52:31;5.97;;;2.20;;
20271;SDS011;10295;49.812;9.866;2023-04-24T07:54:59;6.23;;;2.10;;
20271;SDS011;10295;49.812;9.866;2023-04-24T07:57:26;5.27;;;2.00;;
20271;SDS011;10295;49.812;9.866;2023-04-24T07:59:53;5.77;;;2.03;;
20271;SDS011;10295;49.812;9.866;2023-04-24T08:02:21;6.70;;;2.30;;
20271;SDS011;10295;49.812;9.866;2023-04-24T08:04:52;5.50;;;2.20;;
20271;SDS011;10295;49.812;9.866;2023-04-24T08:07:20;8.37;;;2.50;;
20271;SDS011;10295;49.812;9.866;2023-04-24T08:09:48;6.67;;;2.23;;
20271;SDS011;10295;49.812;9.866;2023-04-24T08:12:15;6.10;;;2.30;;
20271;SDS011;10295;49.812;9.866;2023-04-24T08:14:42;6.20;;;2.43;;
20271;SDS011;10295;49.812;9.866;2023-04-24T08:17:09;6.43;;;2.37;;
20271;SDS011;10295;49.812;9.866;2023-04-24T08:19:37;7.37;;;2.50;;
20271;SDS011;10295;49.812;9.866;2023-04-24T08:22:04;6.40;;;2.30;;
20271;SDS011;10295;49.812;9.866;2023-04-24T08:24:31;7.50;;;2.47;;
20271;SDS011;10295;49.812;9.866;2023-04-24T08:26:58;6.50;;;2.50;;
20271;SDS011;10295;49.812;9.866;2023-04-24T08:29:27;5.70;;;2.27;;
20271;SDS011;10295;49.812;9.866;2023-04-24T08:31:54;9.70;;;2.57;;
20271;SDS011;10295;49.812;9.866;2023-04-24T08:34:21;7.57;;;2.40;;
20271;SDS011;10295;49.812;9.866;2023-04-24T08:36:49;7.43;;;2.63;;
20271;SDS011;10295;49.812;9.866;2023-04-24T08:39:16;6.20;;;2.57;;
20271;SDS011;10295;49.812;9.866;2023-04-24T08:41:44;8.17;;;2.50;;
20271;SDS011;10295;49.812;9.866;2023-04-24T08:44:12;7.17;;;2.40;;
20271;SDS011;10295;49.812;9.866;2023-04-24T08:46:44;7.13;;;2.63;;
20271;SDS011;10295;49.812;9.866;2023-04-24T08:49:14;6.83;;;2.27;;
20271;SDS011;10295;49.812;9.866;2023-04-24T08:51:44;6.87;;;2.00;;
20271;SDS011;10295;49.812;9.866;2023-04-24T08:54:13;3.50;;;1.50;;
20271;SDS011;10295;49.812;9.866;2023-04-24T08:56:41;4.13;;;1.60;;
20271;SDS011;10295;49.812;9.866;2023-04-24T08:59:11;4.97;;;1.50;;
20271;SDS011;10295;49.812;9.866;2023-04-24T09:01:38;4.10;;;1.50;;
20271;SDS011;10295;49.812;9.866;2023-04-24T09:04:07;2.70;;;1.23;;
20271;SDS011;10295;49.812;9.866;2023-04-24T09:06:39;4.87;;;1.50;;
20271;SDS011;10295;49.812;9.866;2023-04-24T09:09:06;6.03;;;1.40;;
20271;SDS011;10295;49.812;9.866;2023-04-24T09:11:34;6.20;;;1.27;;
20271;SDS011;10295;49.812;9.866;2023-04-24T09:14:01;5.60;;;1.30;;
20271;SDS011;10295;49.812;9.866;2023-04-24T09:16:28;3.40;;;1.30;;
20271;SDS011;10295;49.812;9.866;2023-04-24T09:18:56;4.90;;;1.20;;
20271;SDS011;10295;49.812;9.866;2023-04-24T09:21:23;3.45;;;1.25;;
20271;SDS011;10295;49.812;9.866;2023-04-24T09:24:00;3.20;;;1.15;;
20271;SDS011;10295;49.812;9.866;2023-04-24T09:26:32;2.58;;;1.20;;
20271;SDS011;10295;49.812;9.866;2023-04-24T09:28:59;2.78;;;1.00;;
20271;SDS011;10295;49.812;9.866;2023-04-24T09:31:27;3.72;;;1.20;;
20271;SDS011;10295;49.812;9.866;2023-04-24T09:33:55;2.97;;;1.17;;
20271;SDS011;10295;49.812;9.866;2023-04-24T09:36:31;2.60;;;1.20;;
20271;SDS011;10295;49.812;9.866;2023-04-24T09:39:04;3.08;;;1.27;;
20271;SDS011;10295;49.812;9.866;2023-04-24T09:41:31;4.03;;;1.23;;
20271;SDS011;10295;49.812;9.866;2023-04-24T09:44:12;3.92;;;1.10;;
20271;SDS011;10295;49.812;9.866;2023-04-24T09:46:40;5.13;;;1.15;;
20271;SDS011;10295;49.812;9.866;2023-04-24T09:49:08;4.63;;;1.30;;
20271;SDS011;10295;49.812;9.866;2023-04-24T09:51:37;3.90;;;1.30;;
20271;SDS011;10295;49.812;9.866;2023-04-24T09:54:04;3.77;;;1.50;;
20271;SDS011;10295;49.812;9.866;2023-04-24T09:56:37;3.37;;;1.33;;
20271;SDS011;10295;49.812;9.866;2023-04-24T09:59:08;4.53;;;1.30;;
20271;SDS011;10295;49.812;9.866;2023-04-24T10:01:36;4.53;;;1.53;;
20271;SDS011;10295;49.812;9.866;2023-04-24T10:04:04;6.10;;;1.67;;
20271;SDS011;10295;49.812;9.866;2023-04-24T10:06:34;5.33;;;1.80;;
20271;SDS011;10295;49.812;9.866;2023-04-24T10:09:02;8.33;;;1.90;;
20271;SDS011;10295;49.812;9.866;2023-04-24T10:11:29;4.90;;;1.57;;
20271;SDS011;10295;49.812;9.866;2023-04-24T10:13:57;5.10;;;1.70;;
20271;SDS011;10295;49.812;9.866;2023-04-24T10:16:24;5.63;;;1.60;;
20271;SDS011;10295;49.812;9.866;2023-04-24T10:18:53;5.80;;;1.70;;
20271;SDS011;10295;49.812;9.866;2023-04-24T10:21:21;4.32;;;1.63;;
20271;SDS011;10295;49.812;9.866;2023-04-24T10:23:49;4.88;;;1.70;;
20271;SDS011;10295;49.812;9.866;2023-04-24T10:26:17;5.80;;;1.73;;
20271;SDS011;10295;49.812;9.866;2023-04-24T10:28:45;5.63;;;1.90;;
20271;SDS011;10295;49.812;9.866;2023-04-24T10:31:13;4.63;;;1.63;;
20271;SDS011;10295;49.812;9.866;2023-04-24T10:33:40;5.47;;;1.97;;
20271;SDS011;10295;49.812;9.866;2023-04-24T10:36:09;4.73;;;1.70;;
20271;SDS011;10295;49.812;9.866;2023-04-24T10:38:37;4.97;;;1.90;;
20271;SDS011;10295;49.812;9.866;2023-04-24T10:41:07;7.07;;;1.90;;
20271;SDS011;10295;49.812;9.866;2023-04-24T10:43:42;5.07;;;1.70;;
20271;SDS011;10295;49.812;9.866;2023-04-24T10:46:10;4.20;;;1.70;;
20271;SDS011;10295;49.812;9.866;2023-04-24T10:48:41;8.17;;;1.90;;
20271;SDS011;10295;49.812;9.866;2023-04-24T10:51:11;5.57;;;1.90;;
20271;SDS011;10295;49.812;9.866;2023-04-24T10:53:39;5.07;;;2.00;;
20271;SDS011;10295;49.812;9.866;2023-04-24T10:56:07;7.43;;;1.90;;
20271;SDS011;10295;49.812;9.866;2023-04-24T10:58:49;6.37;;;1.73;;
20271;SDS011;10295;49.812;9.866;2023-04-24T11:01:28;5.70;;;2.10;;
20271;SDS011;10295;49.812;9.866;2023-04-24T11:03:56;6.30;;;2.03;;
20271;SDS011;10295;49.812;9.866;2023-04-24T11:06:31;5.43;;;1.80;;
20271;SDS011;10295;49.812;9.866;2023-04-24T11:09:05;4.67;;;1.90;;
20271;SDS011;10295;49.812;9.866;2023-04-24T11:11:34;6.00;;;1.80;;
20271;SDS011;10295;49.812;9.866;2023-04-24T11:14:02;5.37;;;1.70;;
20271;SDS011;10295;49.812;9.866;2023-04-24T11:16:31;5.20;;;1.83;;
20271;SDS011;10295;49.812;9.866;2023-04-24T11:21:46;7.27;;;1.97;;
20271;SDS011;10295;49.812;9.866;2023-04-24T11:29:48;4.90;;;1.80;;
20271;SDS011;10295;49.812;9.866;2023-04-24T11:34:48;5.97;;;1.70;;
20271;SDS011;10295;49.812;9.866;2023-04-24T11:37:16;5.33;;;1.90;;
20271;SDS011;10295;49.812;9.866;2023-04-24T11:39:43;4.27;;;1.80;;
20271;SDS011;10295;49.812;9.866;2023-04-24T11:42:10;4.20;;;1.63;;
20271;SDS011;10295;49.812;9.866;2023-04-24T11:44:41;4.40;;;1.77;;
20271;SDS011;10295;49.812;9.866;2023-04-24T11:47:09;3.93;;;1.70;;
20271;SDS011;10295;49.812;9.866;2023-04-24T11:49:36;4.07;;;1.50;;
20271;SDS011;10295;49.812;9.866;2023-04-24T11:52:04;3.73;;;1.40;;
20271;SDS011;10295;49.812;9.866;2023-04-24T11:54:31;3.33;;;1.37;;
20271;SDS011;10295;49.812;9.866;2023-04-24T11:56:58;4.80;;;1.53;;
20271;SDS011;10295;49.812;9.866;2023-04-24T11:59:26;4.67;;;1.40;;
20271;SDS011;10295;49.812;9.866;2023-04-24T12:01:53;3.40;;;1.30;;
20271;SDS011;10295;49.812;9.866;2023-04-24T12:04:20;4.40;;;1.20;;
20271;SDS011;10295;49.812;9.866;2023-04-24T12:07:03;4.17;;;1.40;;
20271;SDS011;10295;49.812;9.866;2023-04-24T12:09:41;4.20;;;1.33;;
20271;SDS011;10295;49.812;9.866;2023-04-24T12:12:09;3.47;;;1.23;;
20271;SDS011;10295;49.812;9.866;2023-04-24T12:14:42;5.07;;;1.30;;
20271;SDS011;10295;49.812;9.866;2023-04-24T12:17:09;4.25;;;1.50;;
20271;SDS011;10295;49.812;9.866;2023-04-24T12:19:36;7.47;;;1.37;;
20271;SDS011;10295;49.812;9.866;2023-04-24T12:22:04;4.30;;;1.40;;
20271;SDS011;10295;49.812;9.866;2023-04-24T12:24:32;3.50;;;1.53;;
20271;SDS011;10295;49.812;9.866;2023-04-24T12:26:59;3.23;;;1.20;;
20271;SDS011;10295;49.812;9.866;2023-04-24T12:29:27;4.72;;;1.30;;
20271;SDS011;10295;49.812;9.866;2023-04-24T12:31:54;3.67;;;1.40;;
20271;SDS011;10295;49.812;9.866;2023-04-24T12:34:22;3.22;;;1.35;;
20271;SDS011;10295;49.812;9.866;2023-04-24T12:36:49;3.75;;;1.25;;
20271;SDS011;10295;49.812;9.866;2023-04-24T12:39:18;3.73;;;1.30;;
20271;SDS011;10295;49.812;9.866;2023-04-24T12:41:55;3.30;;;1.33;;
20271;SDS011;10295;49.812;9.866;2023-04-24T12:44:31;4.23;;;1.20;;
20271;SDS011;10295;49.812;9.866;2023-04-24T12:46:58;9.13;;;1.40;;
20271;SDS011;10295;49.812;9.866;2023-04-24T12:49:25;5.73;;;1.43;;
20271;SDS011;10295;49.812;9.866;2023-04-24T12:51:52;3.60;;;1.30;;
20271;SDS011;10295;49.812;9.866;2023-04-24T12:54:20;4.00;;;1.43;;
20271;SDS011;10295;49.812;9.866;2023-04-24T12:56:47;4.00;;;1.20;;
20271;SDS011;10295;49.812;9.866;2023-04-24T12:59:14;3.93;;;1.60;;
20271;SDS011;10295;49.812;9.866;2023-04-24T13:01:41;3.57;;;1.50;;
20271;SDS011;10295;49.812;9.866;2023-04-24T13:04:08;4.20;;;1.37;;
20271;SDS011;10295;49.812;9.866;2023-04-24T13:06:36;4.83;;;1.60;;
20271;SDS011;10295;49.812;9.866;2023-04-24T13:09:03;4.40;;;1.50;;
20271;SDS011;10295;49.812;9.866;2023-04-24T13:11:30;3.00;;;1.40;;
20271;SDS011;10295;49.812;9.866;2023-04-24T13:13:58;5.03;;;1.50;;
20271;SDS011;10295;49.812;9.866;2023-04-24T13:16:25;4.80;;;1.67;;
20271;SDS011;10295;49.812;9.866;2023-04-24T13:18:52;5.47;;;1.70;;
20271;SDS011;10295;49.812;9.866;2023-04-24T13:21:19;4.77;;;1.67;;
20271;SDS011;10295;49.812;9.866;2023-04-24T13:23:46;4.73;;;1.60;;
20271;SDS011;10295;49.812;9.866;2023-04-24T13:26:13;5.53;;;1.90;;
20271;SDS011;10295;49.812;9.866;2023-04-24T13:28:41;5.47;;;1.70;;
20271;SDS011;10295;49.812;9.866;2023-04-24T13:31:08;4.57;;;1.90;;
20271;SDS011;10295;49.812;9.866;2023-04-24T13:33:35;8.07;;;1.90;;
20271;SDS011;10295;49.812;9.866;2023-04-24T13:36:02;4.57;;;1.80;;
20271;SDS011;10295;49.812;9.866;2023-04-24T13:38:29;5.83;;;1.90;;
20271;SDS011;10295;49.812;9.866;2023-04-24T13:40:56;5.37;;;1.80;;
20271;SDS011;10295;49.812;9.866;2023-04-24T13:43:24;4.53;;;1.80;;
20271;SDS011;10295;49.812;9.866;2023-04-24T13:45:51;5.10;;;1.97;;
20271;SDS011;10295;49.812;9.866;2023-04-24T13:48:18;7.53;;;2.00;;
20271;SDS011;10295;49.812;9.866;2023-04-24T13:50:45;5.80;;;1.87;;
20271;SDS011;10295;49.812;9.866;2023-04-24T13:53:14;4.97;;;2.03;;
20271;SDS011;10295;49.812;9.866;2023-04-24T13:55:41;7.83;;;1.97;;
20271;SDS011;10295;49.812;9.866;2023-04-24T13:58:08;5.27;;;1.90;;
20271;SDS011;10295;49.812;9.866;2023-04-24T14:00:36;4.53;;;1.60;;
20271;SDS011;10295;49.812;9.866;2023-04-24T14:03:03;3.90;;;1.60;;
20271;SDS011;10295;49.812;9.866;2023-04-24T14:05:31;4.63;;;1.53;;
20271;SDS011;10295;49.812;9.866;2023-04-24T14:07:58;5.10;;;1.70;;
20271;SDS011;10295;49.812;9.866;2023-04-24T14:10:26;5.33;;;1.80;;
20271;SDS011;10295;49.812;9.866;2023-04-24T14:12:53;5.57;;;1.90;;
20271;SDS011;10295;49.812;9.866;2023-04-24T14:15:21;6.07;;;2.20;;
20271;SDS011;10295;49.812;9.866;2023-04-24T14:17:48;9.90;;;2.40;;
20271;SDS011;10295;49.812;9.866;2023-04-24T14:20:16;5.33;;;2.10;;
20271;SDS011;10295;49.812;9.866;2023-04-24T14:22:43;7.53;;;2.20;;
20271;SDS011;10295;49.812;9.866;2023-04-24T14:25:10;4.57;;;2.10;;
20271;SDS011;10295;49.812;9.866;2023-04-24T14:27:37;6.03;;;2.10;;
20271;SDS011;10295;49.812;9.866;2023-04-24T14:30:07;6.87;;;2.20;;
20271;SDS011;10295;49.812;9.866;2023-04-24T14:32:34;6.07;;;1.90;;
20271;SDS011;10295;49.812;9.866;2023-04-24T14:35:02;6.20;;;2.20;;
20271;SDS011;10295;49.812;9.866;2023-04-24T14:37:29;7.37;;;2.23;;
20271;SDS011;10295;49.812;9.866;2023-04-24T14:39:56;9.90;;;2.43;;
20271;SDS011;10295;49.812;9.866;2023-04-24T14:42:43;7.27;;;2.97;;
20271;SDS011;10295;49.812;9.866;2023-04-24T14:45:11;10.03;;;2.60;;
20271;SDS011;10295;49.812;9.866;2023-04-24T14:47:38;7.63;;;2.60;;
20271;SDS011;10295;49.812;9.866;2023-04-24T14:50:06;4.33;;;1.60;;
20271;SDS011;10295;49.812;9.866;2023-04-24T14:52:34;3.57;;;1.47;;
20271;SDS011;10295;49.812;9.866;2023-04-24T14:55:02;3.20;;;1.50;;
20271;SDS011;10295;49.812;9.866;2023-04-24T14:57:29;4.63;;;1.60;;
20271;SDS011;10295;49.812;9.866;2023-04-24T14:59:56;3.43;;;1.50;;
20271;SDS011;10295;49.812;9.866;2023-04-24T15:02:23;4.70;;;1.87;;
20271;SDS011;10295;49.812;9.866;2023-04-24T15:04:51;4.15;;;1.70;;